Time;durP1;ratioP1;P1;durP2;ratioP2;P2;SDS_P1;SDS_P2;PMS_P1;PMS_P2;Temp;Humidity;BMP_temperature;BMP_pressure;BME280_temperature;BME280_humidity;BME280_pressure;Samples;Min_cycle;Max_cycle;Signal;HPM_P1;HPM_P2
2021/01/22 00:00:22;;;;;;;3.05;1.50;;;6.50;74.00;;;;;;5055366;28;20025;-76
2021/01/22 00:02:48;;;;;;;2.88;1.45;;;6.40;74.10;;;;;;5055511;28;20028;-76
2021/01/22 00:05:14;;;;;;;1.98;1.27;;;6.50;74.80;;;;;;5055030;28;20082;-76
2021/01/22 00:07:40;;;;;;;2.88;1.30;;;6.70;73.60;;;;;;5073063;28;20024;-76
2021/01/22 00:10:06;;;;;;;2.17;1.50;;;6.80;72.90;;;;;;5054717;28;20025;-77
2021/01/22 00:12:32;;;;;;;3.65;1.33;;;6.70;72.20;;;;;;5038733;28;20024;-76
2021/01/22 00:14:58;;;;;;;1.08;0.80;;;6.60;72.20;;;;;;5054993;28;20025;-77
2021/01/22 00:17:23;;;;;;;0.73;0.70;;;7.00;69.10;;;;;;5055239;28;20067;-75
2021/01/22 00:19:49;;;;;;;1.25;0.88;;;7.40;67.20;;;;;;5073081;28;20090;-75
2021/01/22 00:22:15;;;;;;;1.98;0.80;;;7.70;65.70;;;;;;5072862;28;20016;-76
2021/01/22 00:24:40;;;;;;;0.70;0.70;;;7.80;66.00;;;;;;5072865;28;20082;-76
2021/01/22 00:27:06;;;;;;;1.08;0.75;;;7.80;65.30;;;;;;5072623;28;20515;-76
2021/01/22 00:29:32;;;;;;;0.85;0.70;;;7.90;64.40;;;;;;5072939;28;20029;-78
2021/01/22 00:31:57;;;;;;;1.25;0.75;;;8.00;65.00;;;;;;5037908;28;20021;-76
2021/01/22 00:34:23;;;;;;;0.50;0.50;;;7.90;66.40;;;;;;5054811;28;20028;-76
2021/01/22 00:36:49;;;;;;;1.13;0.88;;;7.90;66.00;;;;;;5054478;28;20151;-76
2021/01/22 00:39:15;;;;;;;1.63;1.15;;;7.90;65.70;;;;;;5072734;28;20020;-76
2021/01/22 00:41:41;;;;;;;1.13;1.00;;;7.90;66.30;;;;;;5054483;28;20031;-76
2021/01/22 00:44:07;;;;;;;1.80;1.00;;;7.80;67.80;;;;;;5054738;28;20100;-76
2021/01/22 00:46:32;;;;;;;1.42;1.00;;;7.70;67.50;;;;;;5054443;28;20036;-76
2021/01/22 00:48:58;;;;;;;1.92;1.17;;;7.70;69.20;;;;;;5072396;28;20434;-76
2021/01/22 00:51:24;;;;;;;2.42;1.40;;;7.60;68.80;;;;;;5054390;28;20021;-78
2021/01/22 00:53:49;;;;;;;1.25;0.93;;;7.40;69.30;;;;;;5072262;28;20082;-76
2021/01/22 00:56:15;;;;;;;1.27;0.82;;;7.30;69.10;;;;;;5072310;28;20467;-76
2021/01/22 00:58:41;;;;;;;1.33;0.80;;;7.30;68.20;;;;;;5054083;28;20120;-76
2021/01/22 01:01:06;;;;;;;0.50;0.50;;;7.40;67.80;;;;;;5072154;28;20052;-76
2021/01/22 01:03:32;;;;;;;0.63;0.60;;;7.40;67.60;;;;;;5071799;28;20099;-76
2021/01/22 01:05:58;;;;;;;1.02;0.82;;;7.50;67.30;;;;;;5072028;28;20056;-76
2021/01/22 01:08:24;;;;;;;0.73;0.73;;;7.60;67.00;;;;;;5071714;28;20029;-76
2021/01/22 01:10:49;;;;;;;1.42;0.63;;;7.70;66.80;;;;;;5072094;28;20023;-76
2021/01/22 01:13:15;;;;;;;0.63;0.60;;;7.70;66.40;;;;;;5071897;28;20091;-76
2021/01/22 01:15:41;;;;;;;0.75;0.60;;;7.70;66.60;;;;;;5071892;28;20486;-76
2021/01/22 01:18:06;;;;;;;0.68;0.65;;;7.80;65.70;;;;;;5053819;28;20029;-76
2021/01/22 01:20:32;;;;;;;1.88;0.68;;;7.90;66.50;;;;;;5071095;28;20115;-77
2021/01/22 01:22:58;;;;;;;0.77;0.60;;;7.90;66.20;;;;;;5071816;28;20048;-77
2021/01/22 01:25:24;;;;;;;0.60;0.60;;;7.80;66.50;;;;;;5071318;28;20029;-76
2021/01/22 01:27:50;;;;;;;2.05;0.80;;;7.80;67.10;;;;;;5071793;28;20050;-77
2021/01/22 01:30:16;;;;;;;2.35;1.38;;;7.80;66.50;;;;;;5053756;28;20583;-76
2021/01/22 01:32:42;;;;;;;1.88;1.00;;;7.80;66.10;;;;;;5053780;28;20024;-76
2021/01/22 01:35:08;;;;;;;1.00;0.80;;;7.90;65.50;;;;;;5071450;28;20027;-76
2021/01/22 01:37:34;;;;;;;1.15;0.65;;;7.80;65.40;;;;;;5071654;28;20032;-76
2021/01/22 01:40:00;;;;;;;1.25;1.08;;;7.70;65.90;;;;;;5071517;28;20024;-76
2021/01/22 01:42:26;;;;;;;2.78;1.10;;;7.50;66.50;;;;;;5071718;28;20123;-75
2021/01/22 01:44:51;;;;;;;1.65;1.10;;;7.40;67.40;;;;;;5071342;28;20473;-76
2021/01/22 01:47:17;;;;;;;1.95;0.95;;;7.30;67.80;;;;;;5071637;28;20032;-76
2021/01/22 01:49:43;;;;;;;2.00;1.00;;;7.30;68.30;;;;;;5071349;28;20530;-76
2021/01/22 01:52:09;;;;;;;0.88;0.85;;;7.40;69.40;;;;;;5071682;28;20099;-76
2021/01/22 01:54:35;;;;;;;1.55;1.08;;;7.40;69.80;;;;;;5053326;28;20424;-77
2021/01/22 01:57:01;;;;;;;1.02;0.80;;;7.30;69.90;;;;;;5053358;28;20086;-76
2021/01/22 01:59:27;;;;;;;1.73;1.02;;;7.20;70.00;;;;;;5053457;28;20422;-76
2021/01/22 02:01:53;;;;;;;2.13;1.10;;;7.10;71.10;;;;;;5070924;28;20028;-77
2021/01/22 02:06:53;;;;;;;1.13;1.00;;;7.10;71.10;;;;;;5078189;28;20093;-78
2021/01/22 02:09:18;;;;;;;0.93;0.80;;;7.00;71.50;;;;;;5063905;28;20472;-79
2021/01/22 02:11:44;;;;;;;1.30;1.00;;;6.80;71.40;;;;;;5063045;28;20078;-78
2021/01/22 02:14:10;;;;;;;1.63;1.23;;;6.80;71.50;;;;;;5046678;28;20056;-79
2021/01/22 02:16:37;;;;;;;2.20;1.35;;;6.90;71.10;;;;;;5046652;28;20040;-79
2021/01/22 02:19:07;;;;;;;2.40;1.20;;;6.90;71.10;;;;;;5063012;28;20021;-79
2021/01/22 02:21:35;;;;;;;1.40;1.08;;;6.90;72.30;;;;;;5063379;28;20025;-79
2021/01/22 02:24:03;;;;;;;1.73;1.27;;;6.80;72.20;;;;;;5062434;28;20088;-79
2021/01/22 02:26:29;;;;;;;1.48;1.13;;;6.90;72.40;;;;;;5081178;28;20024;-79
2021/01/22 02:29:07;;;;;;;1.38;1.10;;;7.00;72.10;;;;;;5081422;28;20024;-79
2021/01/22 02:31:40;;;;;;;4.18;1.20;;;6.90;71.90;;;;;;5063855;28;20024;-79
2021/01/22 02:34:09;;;;;;;1.48;1.23;;;6.70;72.00;;;;;;5068369;28;20032;-78
2021/01/22 02:36:37;;;;;;;1.65;1.30;;;6.70;72.30;;;;;;5068254;28;20056;-79
2021/01/22 02:39:10;;;;;;;1.75;1.10;;;6.60;72.40;;;;;;5052792;28;20048;-79
2021/01/22 02:41:38;;;;;;;2.28;1.10;;;6.60;72.50;;;;;;5086620;28;20078;-79
2021/01/22 02:44:06;;;;;;;1.77;0.98;;;6.70;72.50;;;;;;5068657;28;20028;-78
2021/01/22 02:46:32;;;;;;;2.30;1.23;;;6.80;72.30;;;;;;5087162;28;20066;-79
2021/01/22 02:48:58;;;;;;;1.77;1.25;;;6.80;72.10;;;;;;5051557;28;20085;-79
2021/01/22 02:51:25;;;;;;;1.25;1.00;;;6.90;72.10;;;;;;5085888;28;20024;-79
2021/01/22 02:53:51;;;;;;;1.60;1.10;;;6.90;71.70;;;;;;5067936;28;20012;-79
2021/01/22 02:56:45;;;;;;;1.60;1.25;;;7.00;72.00;;;;;;5067344;28;20031;-78
2021/01/22 02:59:27;;;;;;;2.42;1.40;;;7.20;71.10;;;;;;5067226;28;20035;-78
2021/01/22 03:02:08;;;;;;;3.42;1.40;;;6.90;70.70;;;;;;5067982;28;20094;-78
2021/01/22 03:04:35;;;;;;;2.10;1.40;;;6.80;71.90;;;;;;5050620;28;20063;-78
2021/01/22 03:07:01;;;;;;;2.80;2.00;;;6.90;71.60;;;;;;5068247;28;20037;-79
2021/01/22 03:09:30;;;;;;;4.30;1.95;;;7.00;71.60;;;;;;5067299;28;20031;-79
2021/01/22 03:11:58;;;;;;;2.28;1.38;;;7.20;72.20;;;;;;5068591;28;20024;-79
2021/01/22 03:14:25;;;;;;;1.85;1.40;;;7.30;71.20;;;;;;5068935;28;20017;-78
2021/01/22 03:16:51;;;;;;;1.70;1.20;;;7.30;71.30;;;;;;5068581;28;20020;-79
2021/01/22 03:19:17;;;;;;;1.30;1.10;;;7.10;71.60;;;;;;5069034;28;20476;-79
2021/01/22 03:21:43;;;;;;;1.73;1.05;;;6.80;72.80;;;;;;5087553;28;20044;-79
2021/01/22 03:24:09;;;;;;;1.70;1.17;;;6.90;73.90;;;;;;5087197;28;20027;-78
2021/01/22 03:26:35;;;;;;;7.18;1.13;;;6.80;74.00;;;;;;5088639;28;20024;-79
2021/01/22 03:29:01;;;;;;;2.97;1.15;;;6.60;74.90;;;;;;5068547;28;20115;-78
2021/01/22 03:31:27;;;;;;;2.83;1.27;;;6.60;75.20;;;;;;5068837;28;20032;-79
2021/01/22 03:33:53;;;;;;;1.30;1.20;;;6.40;75.30;;;;;;5068685;28;20021;-78
2021/01/22 03:36:18;;;;;;;1.27;1.10;;;6.30;75.80;;;;;;5069278;28;20029;-80
2021/01/22 03:38:44;;;;;;;3.95;2.10;;;6.30;76.30;;;;;;5087554;28;20020;-78
2021/01/22 03:41:10;;;;;;;5.80;2.10;;;6.30;76.50;;;;;;5068872;28;20033;-79
2021/01/22 03:43:36;;;;;;;1.92;1.30;;;6.60;76.40;;;;;;5084742;28;20021;-79
2021/01/22 03:46:02;;;;;;;2.60;1.58;;;6.70;75.40;;;;;;5083639;28;20111;-78
2021/01/22 03:48:27;;;;;;;7.03;1.75;;;6.80;74.90;;;;;;5084055;28;20033;-79
2021/01/22 03:50:53;;;;;;;1.95;1.10;;;6.90;74.40;;;;;;5065262;28;20369;-79
2021/01/22 03:53:19;;;;;;;2.78;1.48;;;6.90;73.00;;;;;;5065764;28;20020;-79
2021/01/22 03:55:44;;;;;;;2.17;1.10;;;7.00;72.90;;;;;;5048565;28;20025;-79
2021/01/22 03:58:10;;;;;;;1.02;0.90;;;7.10;72.50;;;;;;5065977;28;20387;-79
2021/01/22 04:00:37;;;;;;;2.70;1.08;;;7.10;72.60;;;;;;5084386;28;20020;-79
2021/01/22 04:03:03;;;;;;;1.30;1.20;;;7.20;72.40;;;;;;5046721;28;20111;-79
2021/01/22 04:05:29;;;;;;;1.17;0.82;;;7.20;72.50;;;;;;5045348;28;20380;-78
2021/01/22 04:07:55;;;;;;;2.85;1.20;;;7.20;71.80;;;;;;5080995;28;20104;-78
2021/01/22 04:10:20;;;;;;;1.48;1.20;;;7.20;71.80;;;;;;5080945;28;20017;-78
2021/01/22 04:12:46;;;;;;;1.92;1.08;;;7.30;71.40;;;;;;5062824;28;20484;-79
2021/01/22 04:15:12;;;;;;;4.32;1.58;;;7.10;71.50;;;;;;5045763;28;20391;-78
2021/01/22 04:17:39;;;;;;;1.45;1.00;;;7.10;72.10;;;;;;5062540;28;20381;-78
2021/01/22 04:20:05;;;;;;;1.25;1.10;;;7.20;72.10;;;;;;5080907;28;20475;-78
2021/01/22 04:22:31;;;;;;;1.80;1.50;;;7.10;72.10;;;;;;5080234;28;20029;-79
2021/01/22 04:24:57;;;;;;;2.60;1.20;;;7.10;72.10;;;;;;5045515;28;20102;-78
2021/01/22 04:27:22;;;;;;;1.33;1.20;;;7.00;72.30;;;;;;5062481;28;20395;-78
2021/01/22 04:29:48;;;;;;;1.83;1.38;;;6.80;72.70;;;;;;5062678;28;20032;-78
2021/01/22 04:32:14;;;;;;;4.07;1.30;;;6.80;73.00;;;;;;5062842;28;20043;-79
2021/01/22 04:34:41;;;;;;;2.70;1.15;;;6.70;73.40;;;;;;5063750;28;20071;-78
2021/01/22 04:37:07;;;;;;;2.17;1.33;;;6.70;73.80;;;;;;5062295;28;20029;-78
2021/01/22 04:39:34;;;;;;;3.67;1.35;;;6.60;74.50;;;;;;5081694;28;20080;-78
2021/01/22 04:42:02;;;;;;;3.83;2.00;;;6.60;74.90;;;;;;5061752;28;20029;-79
2021/01/22 04:44:28;;;;;;;5.38;2.20;;;6.70;75.20;;;;;;5044596;28;20032;-79
2021/01/22 04:46:55;;;;;;;1.92;1.27;;;6.60;75.70;;;;;;5062538;28;20033;-77
2021/01/22 04:49:21;;;;;;;1.15;1.08;;;6.60;75.90;;;;;;5082325;28;20023;-78
2021/01/22 04:51:50;;;;;;;2.65;1.27;;;6.50;76.30;;;;;;5047595;28;20074;-78
2021/01/22 04:54:37;;;;;;;2.28;1.20;;;6.40;76.70;;;;;;5065788;28;20038;-78
2021/01/22 04:57:06;;;;;;;3.53;1.52;;;6.40;76.90;;;;;;5063846;28;20059;-78
2021/01/22 04:59:42;;;;;;;1.88;1.27;;;6.40;77.10;;;;;;5063234;28;20031;-78
2021/01/22 05:02:09;;;;;;;1.35;1.10;;;6.40;77.20;;;;;;5084750;28;20025;-78
2021/01/22 05:04:37;;;;;;;1.30;1.20;;;6.40;77.30;;;;;;5082747;28;20016;-78
2021/01/22 05:07:03;;;;;;;1.20;1.10;;;6.40;77.40;;;;;;5065781;28;20024;-79
2021/01/22 05:09:29;;;;;;;1.10;1.00;;;6.30;77.40;;;;;;5064687;28;20078;-79
2021/01/22 05:11:55;;;;;;;1.63;1.45;;;6.30;77.80;;;;;;5083522;28;20020;-79
2021/01/22 05:14:21;;;;;;;2.25;1.52;;;6.50;77.70;;;;;;5082927;28;20535;-77
2021/01/22 05:17:09;;;;;;;2.60;1.33;;;6.60;76.90;;;;;;5049002;28;20085;-78
2021/01/22 05:19:37;;;;;;;1.83;1.30;;;6.60;76.50;;;;;;5082437;28;20024;-78
2021/01/22 05:22:04;;;;;;;2.97;1.10;;;6.60;76.90;;;;;;5064767;28;20484;-77
2021/01/22 05:24:31;;;;;;;4.40;1.25;;;6.70;76.80;;;;;;5064457;28;20028;-79
2021/01/22 05:27:02;;;;;;;1.98;1.42;;;6.60;77.00;;;;;;5047923;28;20024;-78
2021/01/22 05:29:28;;;;;;;1.80;1.45;;;6.60;77.30;;;;;;5048406;28;20120;-78
2021/01/22 05:31:54;;;;;;;2.70;1.48;;;6.70;77.00;;;;;;5048485;28;20024;-78
2021/01/22 05:34:20;;;;;;;4.80;1.80;;;6.60;77.10;;;;;;5048526;28;20024;-79
2021/01/22 05:36:48;;;;;;;5.70;1.77;;;6.60;77.10;;;;;;5083081;28;20020;-78
2021/01/22 05:39:21;;;;;;;3.90;1.50;;;6.40;77.10;;;;;;5047686;28;20025;-79
2021/01/22 05:41:54;;;;;;;3.58;2.20;;;6.30;77.70;;;;;;5065264;28;20213;-78
2021/01/22 05:44:24;;;;;;;1.88;1.17;;;6.10;77.80;;;;;;5064826;28;20028;-78
2021/01/22 05:47:00;;;;;;;2.00;1.75;;;6.10;78.30;;;;;;5064727;28;20052;-79
2021/01/22 05:49:26;;;;;;;7.70;1.80;;;6.00;78.60;;;;;;5048066;28;20021;-77
2021/01/22 05:51:53;;;;;;;1.40;1.20;;;6.10;79.10;;;;;;5046922;28;20131;-78
2021/01/22 05:54:36;;;;;;;3.03;1.25;;;6.00;79.20;;;;;;5046331;28;20024;-79
2021/01/22 05:57:03;;;;;;;2.60;1.58;;;5.90;79.80;;;;;;5046013;28;20025;-78
2021/01/22 05:59:29;;;;;;;2.08;1.58;;;5.90;79.60;;;;;;5046203;28;20054;-78
2021/01/22 06:01:55;;;;;;;3.45;1.65;;;5.70;79.70;;;;;;5045456;28;20033;-78
2021/01/22 06:04:21;;;;;;;1.90;1.48;;;5.80;80.60;;;;;;5088093;28;20063;-79
2021/01/22 06:06:46;;;;;;;4.35;1.73;;;5.80;80.00;;;;;;5061121;28;20032;-78
2021/01/22 06:09:12;;;;;;;7.50;1.70;;;5.90;80.50;;;;;;5081965;28;20029;-79
2021/01/22 06:11:40;;;;;;;1.65;1.30;;;6.00;79.80;;;;;;5045910;28;20029;-78
2021/01/22 06:14:07;;;;;;;1.45;1.10;;;6.00;79.40;;;;;;5045685;28;20028;-78
2021/01/22 06:16:35;;;;;;;1.10;1.00;;;5.90;79.20;;;;;;5046660;28;20032;-78
2021/01/22 06:19:04;;;;;;;1.65;1.30;;;5.90;79.60;;;;;;5080360;28;20077;-78
2021/01/22 06:21:38;;;;;;;1.92;1.00;;;5.80;79.80;;;;;;5062485;28;20092;-79
2021/01/22 06:24:06;;;;;;;1.35;0.90;;;5.70;80.10;;;;;;5081797;28;20032;-78
2021/01/22 06:26:38;;;;;;;3.20;1.20;;;5.60;80.00;;;;;;5081410;28;20031;-78
2021/01/22 06:29:06;;;;;;;2.65;1.77;;;5.60;80.50;;;;;;5062974;28;20028;-79
2021/01/22 06:31:33;;;;;;;1.20;0.98;;;5.50;80.20;;;;;;5063221;28;20123;-78
2021/01/22 06:33:59;;;;;;;1.65;0.90;;;5.40;80.50;;;;;;5043757;28;20012;-79
2021/01/22 06:36:26;;;;;;;1.48;1.17;;;5.30;81.20;;;;;;5078184;28;20484;-79
2021/01/22 06:38:52;;;;;;;1.40;1.10;;;5.30;81.00;;;;;;5061953;28;20040;-77
2021/01/22 06:41:23;;;;;;;2.38;1.10;;;5.20;80.90;;;;;;5062287;28;20039;-77
2021/01/22 06:43:51;;;;;;;1.23;1.00;;;5.20;80.80;;;;;;5080623;28;20047;-79
2021/01/22 06:46:19;;;;;;;1.13;0.90;;;5.20;81.00;;;;;;5045316;28;20028;-79
2021/01/22 06:48:55;;;;;;;3.45;0.88;;;5.20;81.10;;;;;;5081653;28;20036;-78
2021/01/22 06:51:25;;;;;;;1.55;1.10;;;5.20;81.10;;;;;;5077117;28;20363;-78
2021/01/22 06:54:03;;;;;;;1.50;1.10;;;5.00;81.30;;;;;;5064000;28;20107;-79
2021/01/22 06:56:29;;;;;;;2.80;1.52;;;5.00;81.90;;;;;;5083080;28;20032;-79
2021/01/22 06:58:55;;;;;;;5.45;2.33;;;5.10;81.30;;;;;;5082481;28;20020;-79
2021/01/22 07:01:34;;;;;;;1.80;1.17;;;5.30;81.00;;;;;;5061982;28;20029;-78
2021/01/22 07:03:59;;;;;;;1.63;1.30;;;5.20;80.90;;;;;;5059595;28;20048;-79
2021/01/22 07:06:31;;;;;;;1.67;1.40;;;5.20;81.30;;;;;;5060616;28;20086;-79
2021/01/22 07:08:58;;;;;;;;;;;5.00;81.50;;;;;;5060979;28;20057;-79
2021/01/22 07:11:24;;;;;;;2.40;1.20;;;5.20;81.60;;;;;;5045811;28;19909;-78
2021/01/22 07:13:53;;;;;;;1.58;1.13;;;5.30;81.00;;;;;;5063147;28;20041;-78
2021/01/22 07:16:19;;;;;;;2.03;0.90;;;5.30;80.40;;;;;;5061257;28;20024;-79
2021/01/22 07:18:52;;;;;;;1.73;1.02;;;5.20;80.80;;;;;;5063568;28;20084;-79
2021/01/22 07:21:43;;;;;;;1.08;0.80;;;5.30;81.00;;;;;;5066571;28;20408;-79
2021/01/22 07:24:13;;;;;;;4.50;0.75;;;5.40;80.30;;;;;;5083690;28;20020;-78
2021/01/22 07:26:45;;;;;;;1.13;0.88;;;5.60;79.90;;;;;;5066412;28;20043;-78
2021/01/22 07:29:19;;;;;;;5.00;0.93;;;5.70;79.30;;;;;;5065508;28;20036;-79
2021/01/22 07:31:58;;;;;;;1.45;1.05;;;5.90;78.70;;;;;;5065490;28;20025;-79
2021/01/22 07:34:36;;;;;;;3.00;1.00;;;6.10;78.00;;;;;;5065495;28;20016;-79
2021/01/22 07:37:06;;;;;;;1.50;0.93;;;6.20;77.20;;;;;;5048243;28;20024;-78
2021/01/22 07:39:33;;;;;;;4.68;1.70;;;6.10;76.80;;;;;;5080801;28;20024;-78
2021/01/22 07:42:23;;;;;;;2.53;1.88;;;6.00;77.70;;;;;;5064815;28;20024;-79
2021/01/22 07:44:51;;;;;;;3.47;2.13;;;6.00;77.80;;;;;;5040636;28;20031;-78
2021/01/22 07:47:31;;;;;;;1.27;1.17;;;6.20;77.50;;;;;;5046262;28;20364;-78
2021/01/22 07:50:03;;;;;;;3.38;1.48;;;6.50;76.70;;;;;;5064456;28;20082;-79
2021/01/22 07:52:29;;;;;;;3.33;1.55;;;6.50;77.10;;;;;;5078822;28;20025;-77
2021/01/22 07:54:55;;;;;;;2.72;1.30;;;6.40;76.50;;;;;;5081090;28;20040;-78
2021/01/22 07:57:23;;;;;;;2.28;1.33;;;6.30;76.20;;;;;;5084063;28;20025;-78
2021/01/22 07:59:50;;;;;;;4.20;1.73;;;6.30;76.40;;;;;;5065664;28;20039;-78
2021/01/22 08:02:21;;;;;;;2.47;0.95;;;6.30;77.60;;;;;;5080600;28;20021;-78
2021/01/22 08:04:55;;;;;;;5.47;1.60;;;6.30;76.70;;;;;;5083253;28;20020;-78
2021/01/22 08:07:40;;;;;;;21.25;7.63;;;6.20;76.60;;;;;;5083691;28;20322;-78
2021/01/22 08:10:12;;;;;;;29.23;4.07;;;6.20;77.80;;;;;;5077332;28;20089;-78
2021/01/22 08:12:53;;;;;;;;;;;6.20;76.80;;;;;;5083712;28;20088;-79
2021/01/22 08:15:19;;;;;;;21.05;4.40;;;6.20;76.60;;;;;;5081085;28;19908;-78
2021/01/22 08:17:49;;;;;;;5.45;2.50;;;6.40;76.60;;;;;;5084596;28;20071;-78
2021/01/22 08:20:17;;;;;;;6.13;2.33;;;6.50;76.20;;;;;;5083534;28;20024;-78
2021/01/22 08:22:50;;;;;;;8.90;2.80;;;6.60;75.70;;;;;;5083323;28;20020;-77
2021/01/22 08:25:15;;;;;;;2.63;1.92;;;6.60;75.70;;;;;;5064356;28;20738;-78
2021/01/22 08:27:41;;;;;;;2.78;1.70;;;6.60;75.70;;;;;;5063934;28;20036;-77
2021/01/22 08:30:08;;;;;;;1.35;1.02;;;6.60;75.90;;;;;;5084777;28;20103;-78
2021/01/22 08:32:34;;;;;;;2.13;1.25;;;6.70;75.40;;;;;;5082328;28;20445;-78
2021/01/22 08:35:00;;;;;;;4.45;2.08;;;6.80;75.30;;;;;;5068911;28;20039;-78
2021/01/22 08:37:26;;;;;;;2.80;1.90;;;6.90;76.60;;;;;;5069245;28;20020;-78
2021/01/22 08:39:59;;;;;;;7.90;5.32;;;6.90;76.90;;;;;;5069175;28;20044;-78
2021/01/22 08:42:30;;;;;;;11.23;4.05;;;6.90;76.70;;;;;;5086481;28;20016;-78
2021/01/22 08:44:58;;;;;;;3.13;2.10;;;6.90;76.90;;;;;;5064449;28;20063;-78
2021/01/22 08:47:26;;;;;;;2.78;1.67;;;6.90;76.80;;;;;;5069367;28;20025;-78
2021/01/22 08:49:57;;;;;;;7.97;1.73;;;6.80;76.00;;;;;;5086869;28;20017;-78
2021/01/22 08:52:23;;;;;;;4.07;2.03;;;6.80;74.80;;;;;;5087455;28;20050;-77
2021/01/22 08:54:52;;;;;;;2.92;1.77;;;6.60;76.00;;;;;;5087669;28;20058;-78
2021/01/22 08:57:18;;;;;;;3.15;1.83;;;6.50;75.40;;;;;;5052085;28;20025;-78
2021/01/22 08:59:55;;;;;;;2.67;1.73;;;6.60;75.70;;;;;;5068649;28;20033;-78
2021/01/22 09:02:43;;;;;;;3.03;1.60;;;6.60;76.40;;;;;;5064949;28;20025;-79
2021/01/22 09:05:11;;;;;;;1.70;1.40;;;6.60;75.00;;;;;;5067879;28;20086;-77
2021/01/22 09:07:38;;;;;;;4.32;1.67;;;6.70;75.30;;;;;;5051338;28;20036;-78
2021/01/22 09:10:06;;;;;;;4.53;1.48;;;6.90;75.30;;;;;;5068728;28;20033;-78
2021/01/22 09:12:33;;;;;;;2.80;1.20;;;7.10;74.30;;;;;;5085284;28;20020;-78
2021/01/22 09:15:16;;;;;;;2.28;1.20;;;7.10;74.10;;;;;;5051520;28;20029;-78
2021/01/22 09:17:53;;;;;;;5.13;1.40;;;7.30;73.60;;;;;;5051250;28;20054;-78
2021/01/22 09:20:20;;;;;;;5.80;1.90;;;7.40;73.60;;;;;;5086582;28;20024;-78
2021/01/22 09:22:48;;;;;;;11.25;1.92;;;7.70;73.80;;;;;;5067215;28;20081;-78
2021/01/22 09:25:15;;;;;;;8.55;1.80;;;8.00;72.70;;;;;;5085753;28;20039;-78
2021/01/22 09:27:48;;;;;;;3.30;1.88;;;8.10;72.70;;;;;;5067735;28;20025;-78
2021/01/22 09:30:20;;;;;;;2.58;1.60;;;8.20;72.90;;;;;;5084323;28;20044;-78
2021/01/22 09:32:47;;;;;;;;;;;8.50;71.40;;;;;;5063008;28;20024;-78
2021/01/22 09:35:13;;;;;;;11.20;2.83;;;8.70;70.90;;;;;;5083026;28;19917;-78
2021/01/22 09:37:39;;;;;;;7.57;2.42;;;8.90;69.50;;;;;;5049746;28;20115;-79
2021/01/22 09:40:06;;;;;;;11.65;3.15;;;9.00;70.50;;;;;;5083728;28;20020;-78
2021/01/22 09:42:32;;;;;;;4.63;2.13;;;9.20;70.20;;;;;;5047802;28;20025;-78
2021/01/22 09:44:58;;;;;;;1.65;1.05;;;9.30;69.50;;;;;;5064941;28;20035;-78
2021/01/22 09:47:24;;;;;;;2.92;1.20;;;9.30;67.00;;;;;;5082972;28;20084;-78
2021/01/22 09:49:49;;;;;;;3.05;1.55;;;9.40;68.40;;;;;;5083335;28;20017;-79
2021/01/22 09:52:15;;;;;;;4.93;1.50;;;9.60;68.00;;;;;;5065498;28;20031;-78
2021/01/22 09:54:42;;;;;;;8.32;1.60;;;9.80;67.50;;;;;;5082888;28;20515;-79
2021/01/22 09:57:08;;;;;;;2.88;1.58;;;10.10;65.90;;;;;;5083230;28;20025;-78
2021/01/22 09:59:34;;;;;;;3.42;1.92;;;10.20;65.00;;;;;;5064572;28;20025;-79
2021/01/22 10:02:00;;;;;;;5.18;1.95;;;10.50;64.80;;;;;;5065246;28;20031;-79
2021/01/22 10:04:25;;;;;;;3.08;1.48;;;10.80;64.30;;;;;;5081552;28;20016;-78
2021/01/22 10:06:52;;;;;;;7.30;1.75;;;11.10;62.80;;;;;;5063639;28;20032;-77
2021/01/22 10:09:18;;;;;;;7.75;3.30;;;11.40;61.80;;;;;;5045628;28;20035;-78
2021/01/22 10:11:44;;;;;;;2.40;1.73;;;11.70;61.30;;;;;;5064305;28;20432;-78
2021/01/22 10:14:09;;;;;;;3.05;1.45;;;12.20;59.30;;;;;;5064274;28;20039;-78
2021/01/22 10:16:35;;;;;;;7.32;1.55;;;12.50;57.30;;;;;;5064218;28;20016;-78
2021/01/22 10:19:02;;;;;;;5.10;1.30;;;12.90;57.50;;;;;;5065007;28;20028;-78
2021/01/22 10:21:28;;;;;;;7.78;2.10;;;13.50;55.70;;;;;;5081336;28;20021;-79
2021/01/22 10:23:54;;;;;;;2.85;1.83;;;14.30;54.50;;;;;;5047729;28;20025;-78
2021/01/22 10:26:23;;;;;;;6.55;2.10;;;14.90;51.90;;;;;;5082010;28;20084;-79
2021/01/22 10:28:50;;;;;;;4.70;2.30;;;15.60;50.00;;;;;;5063395;28;20032;-79
2021/01/22 10:31:16;;;;;;;5.88;1.45;;;16.00;48.70;;;;;;5048210;28;20115;-79
2021/01/22 10:33:43;;;;;;;3.42;1.23;;;16.50;47.90;;;;;;5082070;28;20023;-79
2021/01/22 10:36:09;;;;;;;6.00;1.23;;;17.10;45.80;;;;;;5059132;28;20020;-76
2021/01/22 10:38:35;;;;;;;1.60;1.08;;;17.30;44.70;;;;;;5077165;28;20024;-76
2021/01/22 10:41:02;;;;;;;8.15;1.42;;;17.70;44.00;;;;;;5059154;28;20115;-77
2021/01/22 10:43:28;;;;;;;3.38;1.90;;;17.80;43.40;;;;;;5071970;28;20115;-77
2021/01/22 10:45:54;;;;;;;1.45;1.20;;;17.80;43.60;;;;;;5058163;28;20047;-77
2021/01/22 10:48:20;;;;;;;5.72;1.20;;;17.70;43.50;;;;;;5076141;28;20029;-76
2021/01/22 10:50:48;;;;;;;3.13;1.23;;;17.80;43.20;;;;;;5059721;28;20475;-77
2021/01/22 10:53:14;;;;;;;2.72;1.27;;;18.00;42.90;;;;;;5061391;28;20027;-78
2021/01/22 10:55:39;;;;;;;11.13;1.40;;;18.20;43.00;;;;;;5062470;28;20025;-77
2021/01/22 10:58:05;;;;;;;3.05;1.05;;;18.50;42.00;;;;;;5081559;28;20028;-76
2021/01/22 11:00:32;;;;;;;13.80;2.10;;;18.70;41.60;;;;;;5061665;28;20037;-76
2021/01/22 11:02:59;;;;;;;13.05;2.30;;;18.70;41.40;;;;;;5061566;28;20036;-78
2021/01/22 11:05:25;;;;;;;10.05;2.17;;;18.50;42.60;;;;;;5045194;28;20473;-78
2021/01/22 11:07:51;;;;;;;5.45;1.63;;;18.20;43.00;;;;;;5045106;28;20071;-77
2021/01/22 11:10:16;;;;;;;3.03;1.48;;;18.40;42.30;;;;;;5061182;28;20211;-78
2021/01/22 11:12:42;;;;;;;5.32;1.65;;;18.60;41.80;;;;;;5079904;28;20023;-78
2021/01/22 11:15:08;;;;;;;15.40;3.47;;;19.20;41.40;;;;;;5061971;28;20571;-77
2021/01/22 11:17:34;;;;;;;15.20;2.28;;;19.40;40.70;;;;;;5061877;28;20032;-77
2021/01/22 11:20:04;;;;;;;4.82;2.33;;;18.70;41.40;;;;;;5044080;28;20135;-76
2021/01/22 11:22:33;;;;;;;4.22;2.00;;;18.70;41.90;;;;;;5078717;28;20455;-78
2021/01/22 11:24:58;;;;;;;1.33;1.23;;;19.00;41.60;;;;;;5056506;28;20024;-77
2021/01/22 11:27:25;;;;;;;4.40;1.40;;;19.10;41.00;;;;;;5061411;28;20476;-77
2021/01/22 11:29:51;;;;;;;34.20;3.53;;;19.20;40.40;;;;;;5079297;28;20055;-77
2021/01/22 11:32:17;;;;;;;3.28;1.70;;;19.30;40.20;;;;;;5077793;28;20078;-78
2021/01/22 11:34:43;;;;;;;3.58;1.38;;;19.00;40.90;;;;;;5061385;28;20021;-77
2021/01/22 11:37:09;;;;;;;4.90;1.77;;;19.40;40.30;;;;;;5061819;28;20119;-78
2021/01/22 11:39:36;;;;;;;5.13;1.58;;;19.50;40.60;;;;;;5079689;28;20020;-78
2021/01/22 11:42:04;;;;;;;1.73;1.10;;;19.70;39.40;;;;;;5045105;28;20016;-77
2021/01/22 11:44:30;;;;;;;4.75;1.15;;;19.90;38.80;;;;;;5079841;28;20025;-77
2021/01/22 11:46:56;;;;;;;19.50;2.63;;;20.20;38.70;;;;;;5078864;28;20357;-77
2021/01/22 11:49:21;;;;;;;5.90;1.25;;;20.60;38.00;;;;;;5077121;28;20490;-76
2021/01/22 11:51:47;;;;;;;2.38;1.17;;;21.00;37.10;;;;;;5058660;28;20021;-77
2021/01/22 11:54:13;;;;;;;11.13;1.50;;;21.10;37.00;;;;;;5056369;28;20031;-77
2021/01/22 11:56:38;;;;;;;3.88;1.00;;;20.80;37.10;;;;;;5054727;28;20016;-76
2021/01/22 11:59:04;;;;;;;9.63;1.65;;;20.40;37.00;;;;;;5055146;28;20048;-77
2021/01/22 12:01:30;;;;;;;3.17;0.70;;;20.10;37.90;;;;;;5072245;28;20025;-76
2021/01/22 12:03:56;;;;;;;10.13;1.27;;;19.70;38.70;;;;;;5053724;28;20024;-76
2021/01/22 12:06:21;;;;;;;1.27;0.98;;;19.60;38.80;;;;;;5053252;28;20028;-77
2021/01/22 12:08:48;;;;;;;3.80;1.20;;;19.20;39.50;;;;;;5072107;28;20036;-76
2021/01/22 12:11:13;;;;;;;7.18;1.00;;;19.40;39.70;;;;;;5072614;28;20020;-77
2021/01/22 12:13:39;;;;;;;3.25;1.30;;;19.40;39.50;;;;;;5054222;28;20031;-77
2021/01/22 12:16:05;;;;;;;7.57;1.23;;;19.90;39.10;;;;;;5072609;28;20017;-77
2021/01/22 12:18:31;;;;;;;5.97;0.90;;;20.10;38.60;;;;;;5072140;28;20029;-77
2021/01/22 12:20:57;;;;;;;5.57;1.75;;;19.90;38.20;;;;;;5072273;28;20135;-77
2021/01/22 12:23:23;;;;;;;1.83;1.08;;;19.60;39.00;;;;;;5071678;28;20136;-76
2021/01/22 12:25:48;;;;;;;2.40;1.42;;;18.90;39.70;;;;;;5053941;28;20032;-76
2021/01/22 12:28:15;;;;;;;2.00;1.10;;;18.50;40.80;;;;;;5071994;28;20477;-77
2021/01/22 12:30:41;;;;;;;2.53;1.30;;;18.30;41.40;;;;;;5053390;28;20020;-77
2021/01/22 12:33:07;;;;;;;2.95;1.30;;;18.10;41.90;;;;;;5054410;28;20369;-77
2021/01/22 12:35:33;;;;;;;8.25;1.95;;;18.00;42.40;;;;;;5053293;28;20028;-76
2021/01/22 12:37:58;;;;;;;12.25;2.00;;;17.70;42.80;;;;;;5067239;28;20031;-77
2021/01/22 12:40:25;;;;;;;4.25;1.48;;;17.30;43.50;;;;;;5071433;28;20081;-77
2021/01/22 12:42:50;;;;;;;2.03;1.30;;;16.90;44.10;;;;;;5054064;28;20416;-77
2021/01/22 12:45:18;;;;;;;10.32;1.92;;;17.00;43.80;;;;;;5071150;28;20054;-76
2021/01/22 12:47:44;;;;;;;3.65;1.30;;;16.90;44.30;;;;;;5052927;28;20036;-77
2021/01/22 12:50:11;;;;;;;9.45;1.65;;;17.20;44.40;;;;;;5052665;28;20642;-75
2021/01/22 12:52:38;;;;;;;4.15;1.48;;;17.60;43.60;;;;;;5070889;28;20024;-76
2021/01/22 12:55:06;;;;;;;2.17;1.33;;;17.80;42.70;;;;;;5053351;28;20029;-77
2021/01/22 12:57:31;;;;;;;5.70;2.08;;;17.70;42.40;;;;;;5052528;28;20082;-77
2021/01/22 12:59:57;;;;;;;2.50;1.60;;;17.40;43.30;;;;;;5071474;28;20036;-77